sensor_id;sensor_type;location;lat;lon;timestamp;P1;durP1;ratioP1;P2;durP2;ratioP2
27003;SDS011;14546;47.590;19.022;2023-01-10T00:01:37;25.95;;;19.33;;
27003;SDS011;14546;47.590;19.022;2023-01-10T00:04:03;23.42;;;17.52;;
27003;SDS011;14546;47.590;19.022;2023-01-10T00:06:29;22.95;;;18.38;;
27003;SDS011;14546;47.590;19.022;2023-01-10T00:08:55;28.58;;;19.40;;
27003;SDS011;14546;47.590;19.022;2023-01-10T00:11:22;25.90;;;18.35;;
27003;SDS011;14546;47.590;19.022;2023-01-10T00:14:06;25.38;;;18.38;;
27003;SDS011;14546;47.590;19.022;2023-01-10T00:16:32;27.50;;;19.17;;
27003;SDS011;14546;47.590;19.022;2023-01-10T00:18:59;23.50;;;16.88;;
27003;SDS011;14546;47.590;19.022;2023-01-10T00:21:25;22.15;;;15.52;;
27003;SDS011;14546;47.590;19.022;2023-01-10T00:23:52;21.10;;;16.65;;
27003;SDS011;14546;47.590;19.022;2023-01-10T00:26:19;22.67;;;15.88;;
27003;SDS011;14546;47.590;19.022;2023-01-10T00:28:45;22.48;;;16.48;;
27003;SDS011;14546;47.590;19.022;2023-01-10T00:31:11;21.05;;;15.63;;
27003;SDS011;14546;47.590;19.022;2023-01-10T00:33:37;21.73;;;15.80;;
27003;SDS011;14546;47.590;19.022;2023-01-10T00:36:05;18.50;;;14.60;;
27003;SDS011;14546;47.590;19.022;2023-01-10T00:38:32;19.98;;;15.25;;
27003;SDS011;14546;47.590;19.022;2023-01-10T00:40:58;21.70;;;15.32;;
27003;SDS011;14546;47.590;19.022;2023-01-10T00:43:25;20.95;;;14.57;;
27003;SDS011;14546;47.590;19.022;2023-01-10T00:46:10;20.60;;;13.98;;
27003;SDS011;14546;47.590;19.022;2023-01-10T00:48:36;19.70;;;13.18;;
27003;SDS011;14546;47.590;19.022;2023-01-10T00:51:03;17.98;;;13.13;;
27003;SDS011;14546;47.590;19.022;2023-01-10T00:53:29;19.33;;;14.13;;
27003;SDS011;14546;47.590;19.022;2023-01-10T00:55:55;21.10;;;14.52;;
27003;SDS011;14546;47.590;19.022;2023-01-10T00:58:22;19.70;;;14.65;;
27003;SDS011;14546;47.590;19.022;2023-01-10T01:00:49;18.42;;;13.57;;
27003;SDS011;14546;47.590;19.022;2023-01-10T01:03:16;17.00;;;12.85;;
27003;SDS011;14546;47.590;19.022;2023-01-10T01:05:45;20.20;;;13.98;;
27003;SDS011;14546;47.590;19.022;2023-01-10T01:08:12;18.67;;;13.88;;
27003;SDS011;14546;47.590;19.022;2023-01-10T01:10:38;16.65;;;12.25;;
27003;SDS011;14546;47.590;19.022;2023-01-10T01:13:09;16.50;;;12.82;;
27003;SDS011;14546;47.590;19.022;2023-01-10T01:15:36;17.52;;;12.77;;
27003;SDS011;14546;47.590;19.022;2023-01-10T01:18:03;14.75;;;11.48;;
27003;SDS011;14546;47.590;19.022;2023-01-10T01:20:30;15.43;;;12.15;;
27003;SDS011;14546;47.590;19.022;2023-01-10T01:22:56;15.68;;;11.48;;
27003;SDS011;14546;47.590;19.022;2023-01-10T01:25:22;14.77;;;10.95;;
27003;SDS011;14546;47.590;19.022;2023-01-10T01:27:48;13.38;;;9.65;;
27003;SDS011;14546;47.590;19.022;2023-01-10T01:30:14;10.15;;;8.13;;
27003;SDS011;14546;47.590;19.022;2023-01-10T01:32:40;11.25;;;8.68;;
27003;SDS011;14546;47.590;19.022;2023-01-10T01:35:07;9.02;;;7.72;;
27003;SDS011;14546;47.590;19.022;2023-01-10T01:37:33;8.40;;;6.30;;
27003;SDS011;14546;47.590;19.022;2023-01-10T01:39:59;8.48;;;6.40;;
27003;SDS011;14546;47.590;19.022;2023-01-10T01:42:29;8.65;;;6.40;;
27003;SDS011;14546;47.590;19.022;2023-01-10T01:47:32;7.63;;;5.70;;
27003;SDS011;14546;47.590;19.022;2023-01-10T01:49:59;9.02;;;5.90;;
27003;SDS011;14546;47.590;19.022;2023-01-10T01:52:26;5.75;;;5.15;;
27003;SDS011;14546;47.590;19.022;2023-01-10T01:54:56;5.93;;;4.40;;
27003;SDS011;14546;47.590;19.022;2023-01-10T01:57:23;6.88;;;4.10;;
27003;SDS011;14546;47.590;19.022;2023-01-10T01:59:53;4.53;;;3.55;;
27003;SDS011;14546;47.590;19.022;2023-01-10T02:02:22;4.25;;;3.40;;
27003;SDS011;14546;47.590;19.022;2023-01-10T02:04:56;4.43;;;2.97;;
27003;SDS011;14546;47.590;19.022;2023-01-10T02:07:25;3.60;;;2.67;;
27003;SDS011;14546;47.590;19.022;2023-01-10T02:09:53;3.05;;;2.60;;
27003;SDS011;14546;47.590;19.022;2023-01-10T02:12:21;2.85;;;2.20;;
27003;SDS011;14546;47.590;19.022;2023-01-10T02:14:48;2.67;;;2.22;;
27003;SDS011;14546;47.590;19.022;2023-01-10T02:17:15;3.05;;;2.30;;
27003;SDS011;14546;47.590;19.022;2023-01-10T02:19:54;2.17;;;1.95;;
27003;SDS011;14546;47.590;19.022;2023-01-10T02:35:27;3.15;;;2.15;;
27003;SDS011;14546;47.590;19.022;2023-01-10T02:43:11;2.97;;;2.00;;
27003;SDS011;14546;47.590;19.022;2023-01-10T02:45:45;1.83;;;1.50;;
27003;SDS011;14546;47.590;19.022;2023-01-10T02:48:12;1.45;;;1.35;;
27003;SDS011;14546;47.590;19.022;2023-01-10T02:53:13;2.55;;;1.48;;
27003;SDS011;14546;47.590;19.022;2023-01-10T03:00:39;1.63;;;1.20;;
27003;SDS011;14546;47.590;19.022;2023-01-10T03:05:42;1.27;;;0.90;;
27003;SDS011;14546;47.590;19.022;2023-01-10T03:10:57;1.25;;;0.98;;
27003;SDS011;14546;47.590;19.022;2023-01-10T03:13:26;1.58;;;1.10;;
27003;SDS011;14546;47.590;19.022;2023-01-10T03:15:54;1.02;;;0.98;;
27003;SDS011;14546;47.590;19.022;2023-01-10T03:18:22;1.02;;;0.85;;
27003;SDS011;14546;47.590;19.022;2023-01-10T03:20:51;1.52;;;0.82;;
27003;SDS011;14546;47.590;19.022;2023-01-10T03:23:18;1.75;;;1.20;;
27003;SDS011;14546;47.590;19.022;2023-01-10T03:25:46;1.15;;;1.05;;
27003;SDS011;14546;47.590;19.022;2023-01-10T03:28:16;1.00;;;0.95;;
27003;SDS011;14546;47.590;19.022;2023-01-10T03:30:48;1.83;;;1.00;;
27003;SDS011;14546;47.590;19.022;2023-01-10T03:33:16;1.77;;;1.13;;
27003;SDS011;14546;47.590;19.022;2023-01-10T03:38:19;1.17;;;1.00;;
27003;SDS011;14546;47.590;19.022;2023-01-10T03:41:11;2.25;;;1.20;;
27003;SDS011;14546;47.590;19.022;2023-01-10T03:43:39;6.18;;;1.48;;
27003;SDS011;14546;47.590;19.022;2023-01-10T03:46:35;2.10;;;1.90;;
27003;SDS011;14546;47.590;19.022;2023-01-10T03:49:03;3.08;;;2.60;;
27003;SDS011;14546;47.590;19.022;2023-01-10T03:51:30;5.30;;;3.20;;
27003;SDS011;14546;47.590;19.022;2023-01-10T03:53:58;4.95;;;4.43;;
27003;SDS011;14546;47.590;19.022;2023-01-10T03:56:24;5.22;;;4.20;;
27003;SDS011;14546;47.590;19.022;2023-01-10T03:58:50;7.03;;;5.70;;
27003;SDS011;14546;47.590;19.022;2023-01-10T04:01:17;6.63;;;5.53;;
27003;SDS011;14546;47.590;19.022;2023-01-10T04:03:43;7.85;;;6.47;;
27003;SDS011;14546;47.590;19.022;2023-01-10T04:06:09;9.07;;;7.10;;
27003;SDS011;14546;47.590;19.022;2023-01-10T04:08:36;10.57;;;6.93;;
27003;SDS011;14546;47.590;19.022;2023-01-10T04:11:02;9.38;;;7.38;;
27003;SDS011;14546;47.590;19.022;2023-01-10T04:13:28;10.10;;;8.10;;
27003;SDS011;14546;47.590;19.022;2023-01-10T04:15:54;9.15;;;7.55;;
27003;SDS011;14546;47.590;19.022;2023-01-10T04:18:20;12.13;;;7.43;;
27003;SDS011;14546;47.590;19.022;2023-01-10T04:20:47;9.52;;;7.53;;
27003;SDS011;14546;47.590;19.022;2023-01-10T04:23:13;11.23;;;8.02;;
27003;SDS011;14546;47.590;19.022;2023-01-10T04:25:39;12.07;;;8.27;;
27003;SDS011;14546;47.590;19.022;2023-01-10T04:28:05;11.68;;;8.45;;
27003;SDS011;14546;47.590;19.022;2023-01-10T04:30:31;11.27;;;8.27;;
27003;SDS011;14546;47.590;19.022;2023-01-10T04:32:57;8.85;;;6.82;;
27003;SDS011;14546;47.590;19.022;2023-01-10T04:35:24;7.00;;;6.07;;
27003;SDS011;14546;47.590;19.022;2023-01-10T04:37:51;7.03;;;5.72;;
27003;SDS011;14546;47.590;19.022;2023-01-10T04:40:18;5.30;;;4.28;;
27003;SDS011;14546;47.590;19.022;2023-01-10T04:42:47;8.50;;;3.70;;
27003;SDS011;14546;47.590;19.022;2023-01-10T04:45:14;4.28;;;3.30;;
27003;SDS011;14546;47.590;19.022;2023-01-10T04:47:47;2.78;;;2.50;;
27003;SDS011;14546;47.590;19.022;2023-01-10T04:50:13;2.95;;;2.65;;
27003;SDS011;14546;47.590;19.022;2023-01-10T04:52:40;3.83;;;2.30;;
27003;SDS011;14546;47.590;19.022;2023-01-10T04:55:08;2.38;;;2.17;;
27003;SDS011;14546;47.590;19.022;2023-01-10T04:57:34;2.50;;;2.30;;
27003;SDS011;14546;47.590;19.022;2023-01-10T05:00:01;4.80;;;2.92;;
27003;SDS011;14546;47.590;19.022;2023-01-10T05:02:27;3.10;;;2.10;;
27003;SDS011;14546;47.590;19.022;2023-01-10T05:04:53;1.95;;;1.50;;
27003;SDS011;14546;47.590;19.022;2023-01-10T05:07:20;2.15;;;1.60;;
27003;SDS011;14546;47.590;19.022;2023-01-10T05:09:47;1.63;;;1.50;;
27003;SDS011;14546;47.590;19.022;2023-01-10T05:12:13;2.30;;;1.58;;
27003;SDS011;14546;47.590;19.022;2023-01-10T05:14:39;3.63;;;1.80;;
27003;SDS011;14546;47.590;19.022;2023-01-10T05:17:05;2.00;;;1.80;;
27003;SDS011;14546;47.590;19.022;2023-01-10T05:19:32;1.60;;;1.42;;
27003;SDS011;14546;47.590;19.022;2023-01-10T05:21:58;1.63;;;1.00;;
27003;SDS011;14546;47.590;19.022;2023-01-10T05:24:24;1.08;;;0.80;;
27003;SDS011;14546;47.590;19.022;2023-01-10T05:26:50;1.63;;;1.35;;
27003;SDS011;14546;47.590;19.022;2023-01-10T05:29:17;1.23;;;1.10;;
27003;SDS011;14546;47.590;19.022;2023-01-10T05:31:43;1.17;;;0.82;;
27003;SDS011;14546;47.590;19.022;2023-01-10T05:34:12;2.58;;;1.10;;
27003;SDS011;14546;47.590;19.022;2023-01-10T05:36:38;3.33;;;1.00;;
27003;SDS011;14546;47.590;19.022;2023-01-10T05:39:04;1.05;;;0.95;;
27003;SDS011;14546;47.590;19.022;2023-01-10T05:41:30;1.35;;;1.00;;
27003;SDS011;14546;47.590;19.022;2023-01-10T05:43:56;1.55;;;0.98;;
27003;SDS011;14546;47.590;19.022;2023-01-10T05:46:22;2.55;;;1.08;;
27003;SDS011;14546;47.590;19.022;2023-01-10T05:48:50;1.75;;;1.02;;
27003;SDS011;14546;47.590;19.022;2023-01-10T05:51:18;1.98;;;1.08;;
27003;SDS011;14546;47.590;19.022;2023-01-10T05:53:44;1.05;;;0.90;;
27003;SDS011;14546;47.590;19.022;2023-01-10T05:56:11;0.70;;;0.70;;
27003;SDS011;14546;47.590;19.022;2023-01-10T05:58:38;1.98;;;1.02;;
27003;SDS011;14546;47.590;19.022;2023-01-10T06:01:05;1.15;;;1.05;;
27003;SDS011;14546;47.590;19.022;2023-01-10T06:03:31;1.77;;;0.60;;
27003;SDS011;14546;47.590;19.022;2023-01-10T06:05:58;1.00;;;0.85;;
27003;SDS011;14546;47.590;19.022;2023-01-10T06:08:24;1.00;;;0.60;;
27003;SDS011;14546;47.590;19.022;2023-01-10T06:10:51;0.47;;;0.43;;
27003;SDS011;14546;47.590;19.022;2023-01-10T06:13:17;0.68;;;0.47;;
27003;SDS011;14546;47.590;19.022;2023-01-10T06:15:43;0.60;;;0.60;;
27003;SDS011;14546;47.590;19.022;2023-01-10T06:18:10;0.95;;;0.60;;
27003;SDS011;14546;47.590;19.022;2023-01-10T06:20:36;1.35;;;0.60;;
27003;SDS011;14546;47.590;19.022;2023-01-10T06:23:02;2.25;;;0.70;;
27003;SDS011;14546;47.590;19.022;2023-01-10T06:25:29;7.03;;;1.20;;
27003;SDS011;14546;47.590;19.022;2023-01-10T06:27:55;1.15;;;0.40;;
27003;SDS011;14546;47.590;19.022;2023-01-10T06:30:21;0.70;;;0.55;;
27003;SDS011;14546;47.590;19.022;2023-01-10T06:32:47;1.35;;;0.63;;
27003;SDS011;14546;47.590;19.022;2023-01-10T06:35:13;1.65;;;1.13;;
27003;SDS011;14546;47.590;19.022;2023-01-10T06:37:42;0.70;;;0.70;;
27003;SDS011;14546;47.590;19.022;2023-01-10T06:40:08;3.28;;;0.88;;
27003;SDS011;14546;47.590;19.022;2023-01-10T06:42:35;0.70;;;0.63;;
27003;SDS011;14546;47.590;19.022;2023-01-10T06:45:01;1.25;;;0.70;;
27003;SDS011;14546;47.590;19.022;2023-01-10T06:47:29;1.38;;;0.70;;
27003;SDS011;14546;47.590;19.022;2023-01-10T06:49:55;0.95;;;0.80;;
27003;SDS011;14546;47.590;19.022;2023-01-10T06:52:22;1.95;;;1.35;;
27003;SDS011;14546;47.590;19.022;2023-01-10T06:54:49;2.30;;;1.60;;
27003;SDS011;14546;47.590;19.022;2023-01-10T06:57:17;5.82;;;2.80;;
27003;SDS011;14546;47.590;19.022;2023-01-10T06:59:43;2.05;;;1.60;;
27003;SDS011;14546;47.590;19.022;2023-01-10T07:02:10;4.00;;;2.60;;
27003;SDS011;14546;47.590;19.022;2023-01-10T07:04:37;4.05;;;2.90;;
27003;SDS011;14546;47.590;19.022;2023-01-10T07:07:04;3.80;;;2.58;;
27003;SDS011;14546;47.590;19.022;2023-01-10T07:09:30;6.93;;;3.28;;
27003;SDS011;14546;47.590;19.022;2023-01-10T07:11:57;5.68;;;3.15;;
27003;SDS011;14546;47.590;19.022;2023-01-10T07:14:23;6.40;;;3.15;;
27003;SDS011;14546;47.590;19.022;2023-01-10T07:16:49;6.45;;;4.30;;
27003;SDS011;14546;47.590;19.022;2023-01-10T07:19:15;6.13;;;4.07;;
27003;SDS011;14546;47.590;19.022;2023-01-10T07:21:42;6.32;;;3.30;;
27003;SDS011;14546;47.590;19.022;2023-01-10T07:24:09;6.97;;;3.60;;
27003;SDS011;14546;47.590;19.022;2023-01-10T07:26:36;17.58;;;4.53;;
27003;SDS011;14546;47.590;19.022;2023-01-10T07:29:03;2.95;;;2.10;;
27003;SDS011;14546;47.590;19.022;2023-01-10T07:31:30;2.78;;;1.70;;
27003;SDS011;14546;47.590;19.022;2023-01-10T07:33:57;4.20;;;2.08;;
27003;SDS011;14546;47.590;19.022;2023-01-10T07:36:23;5.45;;;2.50;;
27003;SDS011;14546;47.590;19.022;2023-01-10T07:38:49;7.32;;;2.78;;
27003;SDS011;14546;47.590;19.022;2023-01-10T07:41:17;6.25;;;2.83;;
27003;SDS011;14546;47.590;19.022;2023-01-10T07:43:44;4.00;;;2.30;;
27003;SDS011;14546;47.590;19.022;2023-01-10T07:46:10;4.43;;;2.60;;
27003;SDS011;14546;47.590;19.022;2023-01-10T07:48:37;6.05;;;3.13;;
27003;SDS011;14546;47.590;19.022;2023-01-10T07:51:06;5.20;;;2.78;;
27003;SDS011;14546;47.590;19.022;2023-01-10T07:53:33;4.35;;;2.40;;
27003;SDS011;14546;47.590;19.022;2023-01-10T07:55:59;3.00;;;1.95;;
27003;SDS011;14546;47.590;19.022;2023-01-10T07:58:26;3.70;;;2.22;;
27003;SDS011;14546;47.590;19.022;2023-01-10T08:00:59;3.60;;;2.08;;
27003;SDS011;14546;47.590;19.022;2023-01-10T08:03:25;2.40;;;1.90;;
27003;SDS011;14546;47.590;19.022;2023-01-10T08:05:57;3.65;;;2.65;;
27003;SDS011;14546;47.590;19.022;2023-01-10T08:08:24;3.25;;;1.95;;
27003;SDS011;14546;47.590;19.022;2023-01-10T08:10:50;12.05;;;3.75;;
27003;SDS011;14546;47.590;19.022;2023-01-10T08:13:16;5.05;;;2.72;;
27003;SDS011;14546;47.590;19.022;2023-01-10T08:15:42;3.30;;;1.60;;
27003;SDS011;14546;47.590;19.022;2023-01-10T08:18:09;1.23;;;0.82;;
27003;SDS011;14546;47.590;19.022;2023-01-10T08:20:35;2.20;;;1.70;;
27003;SDS011;14546;47.590;19.022;2023-01-10T08:23:01;1.33;;;1.20;;
27003;SDS011;14546;47.590;19.022;2023-01-10T08:25:27;1.83;;;1.40;;
27003;SDS011;14546;47.590;19.022;2023-01-10T08:27:53;1.95;;;1.73;;
27003;SDS011;14546;47.590;19.022;2023-01-10T08:30:19;1.33;;;0.90;;
27003;SDS011;14546;47.590;19.022;2023-01-10T08:32:46;3.15;;;0.85;;
27003;SDS011;14546;47.590;19.022;2023-01-10T08:35:12;0.88;;;0.77;;
27003;SDS011;14546;47.590;19.022;2023-01-10T08:37:38;2.28;;;1.55;;
27003;SDS011;14546;47.590;19.022;2023-01-10T08:40:04;2.85;;;2.05;;
27003;SDS011;14546;47.590;19.022;2023-01-10T08:42:30;4.45;;;2.33;;
27003;SDS011;14546;47.590;19.022;2023-01-10T08:44:56;5.20;;;2.45;;
27003;SDS011;14546;47.590;19.022;2023-01-10T08:47:24;3.88;;;1.67;;
27003;SDS011;14546;47.590;19.022;2023-01-10T08:49:50;3.15;;;1.63;;
27003;SDS011;14546;47.590;19.022;2023-01-10T08:52:16;17.38;;;4.95;;
27003;SDS011;14546;47.590;19.022;2023-01-10T08:54:42;10.93;;;4.68;;
27003;SDS011;14546;47.590;19.022;2023-01-10T08:57:08;9.90;;;4.22;;
27003;SDS011;14546;47.590;19.022;2023-01-10T08:59:34;10.75;;;5.25;;
27003;SDS011;14546;47.590;19.022;2023-01-10T09:02:00;7.35;;;3.17;;
27003;SDS011;14546;47.590;19.022;2023-01-10T09:04:28;1.50;;;1.20;;
27003;SDS011;14546;47.590;19.022;2023-01-10T09:06:54;1.80;;;1.05;;
27003;SDS011;14546;47.590;19.022;2023-01-10T09:09:21;2.67;;;1.58;;
27003;SDS011;14546;47.590;19.022;2023-01-10T09:11:47;1.05;;;0.90;;
27003;SDS011;14546;47.590;19.022;2023-01-10T09:14:13;1.52;;;1.10;;
27003;SDS011;14546;47.590;19.022;2023-01-10T09:16:40;2.65;;;1.70;;
27003;SDS011;14546;47.590;19.022;2023-01-10T09:19:06;1.80;;;0.98;;
27003;SDS011;14546;47.590;19.022;2023-01-10T09:21:32;4.35;;;1.92;;
27003;SDS011;14546;47.590;19.022;2023-01-10T09:23:58;4.32;;;2.10;;
27003;SDS011;14546;47.590;19.022;2023-01-10T09:26:24;3.28;;;1.52;;
27003;SDS011;14546;47.590;19.022;2023-01-10T09:28:50;2.40;;;1.58;;
27003;SDS011;14546;47.590;19.022;2023-01-10T09:31:19;2.70;;;1.92;;
27003;SDS011;14546;47.590;19.022;2023-01-10T09:33:45;2.03;;;1.25;;
27003;SDS011;14546;47.590;19.022;2023-01-10T09:36:13;1.77;;;1.23;;
27003;SDS011;14546;47.590;19.022;2023-01-10T09:38:40;1.75;;;0.90;;
27003;SDS011;14546;47.590;19.022;2023-01-10T09:49:04;2.00;;;1.58;;
27003;SDS011;14546;47.590;19.022;2023-01-10T09:53:58;3.67;;;2.35;;
27003;SDS011;14546;47.590;19.022;2023-01-10T09:56:26;1.50;;;1.13;;
27003;SDS011;14546;47.590;19.022;2023-01-10T09:58:53;1.20;;;0.75;;
27003;SDS011;14546;47.590;19.022;2023-01-10T10:01:20;2.85;;;2.10;;
27003;SDS011;14546;47.590;19.022;2023-01-10T10:03:52;2.75;;;1.50;;
27003;SDS011;14546;47.590;19.022;2023-01-10T10:06:19;1.67;;;1.00;;
27003;SDS011;14546;47.590;19.022;2023-01-10T10:08:46;3.20;;;1.70;;
27003;SDS011;14546;47.590;19.022;2023-01-10T10:11:36;2.53;;;1.95;;
27003;SDS011;14546;47.590;19.022;2023-01-10T10:24:38;2.58;;;1.80;;
27003;SDS011;14546;47.590;19.022;2023-01-10T10:30:02;1.58;;;1.00;;
27003;SDS011;14546;47.590;19.022;2023-01-10T10:35:36;0.93;;;0.90;;
27003;SDS011;14546;47.590;19.022;2023-01-10T10:38:44;2.58;;;1.20;;
27003;SDS011;14546;47.590;19.022;2023-01-10T10:40:54;1.60;;;0.88;;
27003;SDS011;14546;47.590;19.022;2023-01-10T10:43:22;1.88;;;1.40;;
27003;SDS011;14546;47.590;19.022;2023-01-10T10:45:55;3.28;;;2.45;;
27003;SDS011;14546;47.590;19.022;2023-01-10T10:48:27;5.15;;;2.72;;
27003;SDS011;14546;47.590;19.022;2023-01-10T10:50:59;3.10;;;2.10;;
27003;SDS011;14546;47.590;19.022;2023-01-10T10:53:27;5.82;;;3.03;;
27003;SDS011;14546;47.590;19.022;2023-01-10T10:55:54;3.30;;;1.83;;
27003;SDS011;14546;47.590;19.022;2023-01-10T10:58:21;3.47;;;2.30;;
27003;SDS011;14546;47.590;19.022;2023-01-10T11:00:47;7.63;;;3.72;;
27003;SDS011;14546;47.590;19.022;2023-01-10T11:05:58;8.77;;;3.30;;
27003;SDS011;14546;47.590;19.022;2023-01-10T11:08:25;3.42;;;2.72;;
27003;SDS011;14546;47.590;19.022;2023-01-10T11:10:52;3.15;;;1.88;;
27003;SDS011;14546;47.590;19.022;2023-01-10T11:14:02;1.42;;;1.00;;
27003;SDS011;14546;47.590;19.022;2023-01-10T11:16:21;3.42;;;2.22;;
27003;SDS011;14546;47.590;19.022;2023-01-10T11:18:47;3.20;;;1.70;;
27003;SDS011;14546;47.590;19.022;2023-01-10T11:21:33;6.57;;;2.60;;
27003;SDS011;14546;47.590;19.022;2023-01-10T11:23:59;6.00;;;4.00;;
27003;SDS011;14546;47.590;19.022;2023-01-10T11:26:29;4.88;;;2.80;;
27003;SDS011;14546;47.590;19.022;2023-01-10T11:31:33;4.45;;;2.10;;
27003;SDS011;14546;47.590;19.022;2023-01-10T11:34:02;3.63;;;2.17;;
27003;SDS011;14546;47.590;19.022;2023-01-10T11:36:45;3.60;;;2.60;;
27003;SDS011;14546;47.590;19.022;2023-01-10T11:39:16;1.90;;;1.45;;
27003;SDS011;14546;47.590;19.022;2023-01-10T11:41:42;1.27;;;1.17;;
27003;SDS011;14546;47.590;19.022;2023-01-10T11:46:44;1.30;;;0.93;;
27003;SDS011;14546;47.590;19.022;2023-01-10T11:49:11;1.52;;;0.98;;
27003;SDS011;14546;47.590;19.022;2023-01-10T11:51:44;1.30;;;1.08;;
27003;SDS011;14546;47.590;19.022;2023-01-10T11:54:24;2.88;;;1.52;;
27003;SDS011;14546;47.590;19.022;2023-01-10T11:56:55;1.98;;;1.30;;
27003;SDS011;14546;47.590;19.022;2023-01-10T11:59:22;2.53;;;1.33;;
27003;SDS011;14546;47.590;19.022;2023-01-10T12:01:53;1.70;;;1.00;;
27003;SDS011;14546;47.590;19.022;2023-01-10T12:04:20;2.20;;;1.15;;
27003;SDS011;14546;47.590;19.022;2023-01-10T12:06:51;1.05;;;0.75;;
27003;SDS011;14546;47.590;19.022;2023-01-10T12:09:31;1.52;;;1.23;;
27003;SDS011;14546;47.590;19.022;2023-01-10T12:12:01;2.10;;;1.50;;
27003;SDS011;14546;47.590;19.022;2023-01-10T12:14:28;1.15;;;0.70;;
27003;SDS011;14546;47.590;19.022;2023-01-10T12:16:57;2.45;;;1.20;;
27003;SDS011;14546;47.590;19.022;2023-01-10T12:19:24;2.13;;;1.70;;
27003;SDS011;14546;47.590;19.022;2023-01-10T12:21:51;4.85;;;1.70;;
27003;SDS011;14546;47.590;19.022;2023-01-10T12:24:20;3.70;;;2.00;;
27003;SDS011;14546;47.590;19.022;2023-01-10T12:26:47;3.80;;;2.60;;
27003;SDS011;14546;47.590;19.022;2023-01-10T12:29:16;1.90;;;1.45;;
27003;SDS011;14546;47.590;19.022;2023-01-10T12:31:43;2.22;;;1.27;;
27003;SDS011;14546;47.590;19.022;2023-01-10T12:34:20;2.50;;;1.60;;
27003;SDS011;14546;47.590;19.022;2023-01-10T12:37:03;3.85;;;1.33;;
27003;SDS011;14546;47.590;19.022;2023-01-10T12:39:35;1.35;;;1.13;;
27003;SDS011;14546;47.590;19.022;2023-01-10T12:44:50;1.48;;;1.30;;
27003;SDS011;14546;47.590;19.022;2023-01-10T12:47:24;2.97;;;1.50;;
27003;SDS011;14546;47.590;19.022;2023-01-10T12:49:55;2.25;;;1.55;;
27003;SDS011;14546;47.590;19.022;2023-01-10T12:52:26;2.25;;;1.58;;
27003;SDS011;14546;47.590;19.022;2023-01-10T12:54:54;2.03;;;1.27;;
27003;SDS011;14546;47.590;19.022;2023-01-10T12:57:31;2.63;;;1.55;;
27003;SDS011;14546;47.590;19.022;2023-01-10T13:00:22;2.75;;;1.80;;
27003;SDS011;14546;47.590;19.022;2023-01-10T13:02:50;2.13;;;1.17;;
27003;SDS011;14546;47.590;19.022;2023-01-10T13:05:18;2.45;;;1.40;;
27003;SDS011;14546;47.590;19.022;2023-01-10T13:07:45;2.05;;;1.38;;
27003;SDS011;14546;47.590;19.022;2023-01-10T13:10:13;4.10;;;1.38;;
27003;SDS011;14546;47.590;19.022;2023-01-10T13:12:40;2.75;;;1.75;;
27003;SDS011;14546;47.590;19.022;2023-01-10T13:15:17;3.10;;;1.88;;
27003;SDS011;14546;47.590;19.022;2023-01-10T13:17:52;23.38;;;3.85;;
27003;SDS011;14546;47.590;19.022;2023-01-10T13:22:58;3.58;;;1.75;;
27003;SDS011;14546;47.590;19.022;2023-01-10T13:25:30;3.55;;;2.30;;
27003;SDS011;14546;47.590;19.022;2023-01-10T13:28:18;4.30;;;1.25;;
27003;SDS011;14546;47.590;19.022;2023-01-10T13:30:50;2.28;;;1.52;;
27003;SDS011;14546;47.590;19.022;2023-01-10T13:35:49;2.90;;;2.03;;
27003;SDS011;14546;47.590;19.022;2023-01-10T13:40:54;2.55;;;1.58;;
27003;SDS011;14546;47.590;19.022;2023-01-10T13:43:31;1.60;;;1.23;;
27003;SDS011;14546;47.590;19.022;2023-01-10T13:48:39;2.65;;;1.90;;
27003;SDS011;14546;47.590;19.022;2023-01-10T13:51:12;3.70;;;1.90;;
27003;SDS011;14546;47.590;19.022;2023-01-10T13:53:40;2.90;;;1.67;;
27003;SDS011;14546;47.590;19.022;2023-01-10T13:56:27;3.70;;;2.30;;
27003;SDS011;14546;47.590;19.022;2023-01-10T13:58:56;3.22;;;1.60;;
27003;SDS011;14546;47.590;19.022;2023-01-10T14:01:41;3.60;;;1.60;;
27003;SDS011;14546;47.590;19.022;2023-01-10T14:04:27;4.10;;;1.50;;
27003;SDS011;14546;47.590;19.022;2023-01-10T14:11:50;7.25;;;3.88;;
27003;SDS011;14546;47.590;19.022;2023-01-10T14:16:47;5.13;;;2.80;;
27003;SDS011;14546;47.590;19.022;2023-01-10T14:19:20;5.25;;;2.70;;
27003;SDS011;14546;47.590;19.022;2023-01-10T14:21:50;6.30;;;2.67;;
27003;SDS011;14546;47.590;19.022;2023-01-10T14:24:25;5.55;;;2.85;;
27003;SDS011;14546;47.590;19.022;2023-01-10T14:26:55;2.85;;;1.48;;
27003;SDS011;14546;47.590;19.022;2023-01-10T14:29:23;3.47;;;1.33;;
27003;SDS011;14546;47.590;19.022;2023-01-10T14:31:52;2.72;;;1.50;;
27003;SDS011;14546;47.590;19.022;2023-01-10T14:34:29;4.43;;;2.20;;
27003;SDS011;14546;47.590;19.022;2023-01-10T14:37:06;2.17;;;1.60;;
27003;SDS011;14546;47.590;19.022;2023-01-10T14:39:33;2.13;;;1.40;;
27003;SDS011;14546;47.590;19.022;2023-01-10T14:42:04;3.80;;;1.75;;
27003;SDS011;14546;47.590;19.022;2023-01-10T14:44:34;3.83;;;2.20;;
27003;SDS011;14546;47.590;19.022;2023-01-10T14:47:02;3.00;;;1.70;;
27003;SDS011;14546;47.590;19.022;2023-01-10T14:49:35;2.45;;;1.75;;
27003;SDS011;14546;47.590;19.022;2023-01-10T14:52:17;2.45;;;2.00;;
27003;SDS011;14546;47.590;19.022;2023-01-10T14:54:44;3.15;;;1.88;;
27003;SDS011;14546;47.590;19.022;2023-01-10T14:57:15;3.53;;;2.20;;
27003;SDS011;14546;47.590;19.022;2023-01-10T14:59:42;3.33;;;1.60;;
27003;SDS011;14546;47.590;19.022;2023-01-10T15:02:23;3.67;;;2.03;;
27003;SDS011;14546;47.590;19.022;2023-01-10T15:04:57;5.63;;;2.53;;
27003;SDS011;14546;47.590;19.022;2023-01-10T15:07:24;3.17;;;2.08;;
27003;SDS011;14546;47.590;19.022;2023-01-10T15:09:51;2.97;;;1.20;;
27003;SDS011;14546;47.590;19.022;2023-01-10T15:12:18;3.28;;;2.08;;
27003;SDS011;14546;47.590;19.022;2023-01-10T15:14:44;2.67;;;1.95;;
27003;SDS011;14546;47.590;19.022;2023-01-10T15:17:14;5.38;;;1.58;;
27003;SDS011;14546;47.590;19.022;2023-01-10T15:19:41;2.67;;;1.60;;
27003;SDS011;14546;47.590;19.022;2023-01-10T15:22:21;2.58;;;1.85;;
27003;SDS011;14546;47.590;19.022;2023-01-10T15:24:59;3.92;;;2.03;;
27003;SDS011;14546;47.590;19.022;2023-01-10T15:27:25;3.05;;;2.17;;
27003;SDS011;14546;47.590;19.022;2023-01-10T15:29:52;9.15;;;2.10;;
27003;SDS011;14546;47.590;19.022;2023-01-10T15:34:46;4.70;;;2.20;;
27003;SDS011;14546;47.590;19.022;2023-01-10T15:37:18;3.40;;;1.73;;
27003;SDS011;14546;47.590;19.022;2023-01-10T15:39:45;3.08;;;1.60;;
27003;SDS011;14546;47.590;19.022;2023-01-10T15:42:12;3.20;;;1.98;;
27003;SDS011;14546;47.590;19.022;2023-01-10T15:47:05;4.60;;;2.10;;
27003;SDS011;14546;47.590;19.022;2023-01-10T15:49:31;2.40;;;1.67;;
27003;SDS011;14546;47.590;19.022;2023-01-10T15:51:58;3.22;;;2.22;;
27003;SDS011;14546;47.590;19.022;2023-01-10T15:56:51;3.03;;;1.67;;
27003;SDS011;14546;47.590;19.022;2023-01-10T16:01:57;5.40;;;2.63;;
27003;SDS011;14546;47.590;19.022;2023-01-10T16:04:25;4.63;;;2.30;;
27003;SDS011;14546;47.590;19.022;2023-01-10T16:06:52;7.93;;;3.60;;
27003;SDS011;14546;47.590;19.022;2023-01-10T16:09:20;3.95;;;1.95;;
27003;SDS011;14546;47.590;19.022;2023-01-10T16:11:50;5.90;;;1.75;;
27003;SDS011;14546;47.590;19.022;2023-01-10T16:14:36;9.60;;;3.70;;
27003;SDS011;14546;47.590;19.022;2023-01-10T16:17:02;7.25;;;3.38;;
27003;SDS011;14546;47.590;19.022;2023-01-10T16:19:28;5.72;;;2.85;;
27003;SDS011;14546;47.590;19.022;2023-01-10T16:21:55;7.25;;;3.58;;